Terminal Aerodrome Forecast
Issued by NWS Jackson, KY

Home | Current Version | Previous Version | Text Only | Print | Product List | Glossary On
Versions: 1 2 3 4 5 6 7 8 9 10 11 12 13 14
000
FTUS43 KJKL 172100 AAA
TAFLOZ
TAF AMD
KLOZ 172111Z 1721/1818 25011G21KT P6SM FEW250
     FM172300 25006KT P6SM SCT250
     FM180900 27004KT P6SM OVC050
     FM181500 28004KT P6SM OVC025=

USA.gov is the U.S. government's official web portal to all federal, state and local government web resources and services.